sensor_id;sensor_type;location;lat;lon;timestamp;P1;durP1;ratioP1;P2;durP2;ratioP2
76228;SDS011;65021;53.174;18.160;2024-01-25T00:00:42;7.60;;;1.90;;
76228;SDS011;65021;53.174;18.160;2024-01-25T00:03:29;4.80;;;1.40;;
76228;SDS011;65021;53.174;18.160;2024-01-25T00:05:55;5.30;;;1.60;;
76228;SDS011;65021;53.174;18.160;2024-01-25T00:08:22;8.60;;;2.30;;
76228;SDS011;65021;53.174;18.160;2024-01-25T00:10:48;7.70;;;1.60;;
76228;SDS011;65021;53.174;18.160;2024-01-25T00:13:15;6.00;;;1.50;;
76228;SDS011;65021;53.174;18.160;2024-01-25T00:15:42;6.40;;;1.30;;
76228;SDS011;65021;53.174;18.160;2024-01-25T00:18:08;6.10;;;1.70;;
76228;SDS011;65021;53.174;18.160;2024-01-25T00:20:35;4.00;;;0.90;;
76228;SDS011;65021;53.174;18.160;2024-01-25T00:23:02;4.80;;;1.10;;
76228;SDS011;65021;53.174;18.160;2024-01-25T00:25:28;7.70;;;1.50;;
76228;SDS011;65021;53.174;18.160;2024-01-25T00:27:55;8.50;;;1.40;;
76228;SDS011;65021;53.174;18.160;2024-01-25T00:30:22;8.10;;;2.00;;
76228;SDS011;65021;53.174;18.160;2024-01-25T00:32:48;11.70;;;1.50;;
76228;SDS011;65021;53.174;18.160;2024-01-25T00:35:15;10.20;;;2.10;;
76228;SDS011;65021;53.174;18.160;2024-01-25T00:37:42;12.90;;;1.90;;
76228;SDS011;65021;53.174;18.160;2024-01-25T00:40:09;10.10;;;2.10;;
76228;SDS011;65021;53.174;18.160;2024-01-25T00:42:43;7.90;;;1.60;;
76228;SDS011;65021;53.174;18.160;2024-01-25T00:45:11;15.90;;;2.10;;
76228;SDS011;65021;53.174;18.160;2024-01-25T00:47:38;12.70;;;1.80;;
76228;SDS011;65021;53.174;18.160;2024-01-25T00:50:05;12.30;;;3.00;;
76228;SDS011;65021;53.174;18.160;2024-01-25T00:52:33;17.10;;;2.30;;
76228;SDS011;65021;53.174;18.160;2024-01-25T00:55:02;17.20;;;2.50;;
76228;SDS011;65021;53.174;18.160;2024-01-25T00:57:29;10.60;;;2.40;;
76228;SDS011;65021;53.174;18.160;2024-01-25T00:59:56;10.40;;;1.90;;
76228;SDS011;65021;53.174;18.160;2024-01-25T01:02:24;8.60;;;2.40;;
76228;SDS011;65021;53.174;18.160;2024-01-25T01:04:57;11.20;;;2.30;;
76228;SDS011;65021;53.174;18.160;2024-01-25T01:07:24;12.00;;;2.20;;
76228;SDS011;65021;53.174;18.160;2024-01-25T01:09:51;10.10;;;2.70;;
76228;SDS011;65021;53.174;18.160;2024-01-25T01:12:18;9.30;;;2.00;;
76228;SDS011;65021;53.174;18.160;2024-01-25T01:14:44;11.80;;;2.80;;
76228;SDS011;65021;53.174;18.160;2024-01-25T01:17:11;11.90;;;1.90;;
76228;SDS011;65021;53.174;18.160;2024-01-25T01:19:37;11.90;;;2.30;;
76228;SDS011;65021;53.174;18.160;2024-01-25T01:22:04;13.00;;;2.00;;
76228;SDS011;65021;53.174;18.160;2024-01-25T01:24:30;15.70;;;2.50;;
76228;SDS011;65021;53.174;18.160;2024-01-25T01:26:57;5.20;;;1.40;;
76228;SDS011;65021;53.174;18.160;2024-01-25T01:29:24;9.80;;;2.40;;
76228;SDS011;65021;53.174;18.160;2024-01-25T01:31:51;8.00;;;1.80;;
76228;SDS011;65021;53.174;18.160;2024-01-25T01:34:17;8.90;;;2.30;;
76228;SDS011;65021;53.174;18.160;2024-01-25T01:36:44;11.90;;;2.50;;
76228;SDS011;65021;53.174;18.160;2024-01-25T01:39:10;10.30;;;1.70;;
76228;SDS011;65021;53.174;18.160;2024-01-25T01:41:37;9.80;;;1.60;;
76228;SDS011;65021;53.174;18.160;2024-01-25T01:44:03;9.00;;;1.80;;
76228;SDS011;65021;53.174;18.160;2024-01-25T01:46:34;15.10;;;2.20;;
76228;SDS011;65021;53.174;18.160;2024-01-25T01:49:03;7.90;;;1.80;;
76228;SDS011;65021;53.174;18.160;2024-01-25T01:51:31;7.60;;;1.80;;
76228;SDS011;65021;53.174;18.160;2024-01-25T01:53:59;13.70;;;2.60;;
76228;SDS011;65021;53.174;18.160;2024-01-25T01:56:27;9.10;;;1.80;;
76228;SDS011;65021;53.174;18.160;2024-01-25T01:58:58;10.90;;;2.70;;
76228;SDS011;65021;53.174;18.160;2024-01-25T02:01:27;16.40;;;2.50;;
76228;SDS011;65021;53.174;18.160;2024-01-25T02:03:54;11.90;;;2.20;;
76228;SDS011;65021;53.174;18.160;2024-01-25T02:06:22;11.20;;;1.90;;
76228;SDS011;65021;53.174;18.160;2024-01-25T02:08:50;9.40;;;1.50;;
76228;SDS011;65021;53.174;18.160;2024-01-25T02:11:19;9.80;;;2.10;;
76228;SDS011;65021;53.174;18.160;2024-01-25T02:13:46;16.80;;;2.70;;
76228;SDS011;65021;53.174;18.160;2024-01-25T02:16:13;13.50;;;2.50;;
76228;SDS011;65021;53.174;18.160;2024-01-25T02:18:43;12.20;;;2.50;;
76228;SDS011;65021;53.174;18.160;2024-01-25T02:21:10;16.80;;;2.90;;
76228;SDS011;65021;53.174;18.160;2024-01-25T02:23:36;8.00;;;2.40;;
76228;SDS011;65021;53.174;18.160;2024-01-25T02:26:03;10.10;;;1.70;;
76228;SDS011;65021;53.174;18.160;2024-01-25T02:28:30;11.60;;;2.30;;
76228;SDS011;65021;53.174;18.160;2024-01-25T02:30:56;15.50;;;1.90;;
76228;SDS011;65021;53.174;18.160;2024-01-25T02:33:23;11.80;;;2.10;;
76228;SDS011;65021;53.174;18.160;2024-01-25T02:35:50;16.40;;;2.80;;
76228;SDS011;65021;53.174;18.160;2024-01-25T02:38:17;8.80;;;1.60;;
76228;SDS011;65021;53.174;18.160;2024-01-25T02:40:43;11.90;;;2.80;;
76228;SDS011;65021;53.174;18.160;2024-01-25T02:43:10;8.40;;;1.60;;
76228;SDS011;65021;53.174;18.160;2024-01-25T02:45:36;12.40;;;2.20;;
76228;SDS011;65021;53.174;18.160;2024-01-25T02:48:03;13.20;;;2.40;;
76228;SDS011;65021;53.174;18.160;2024-01-25T02:50:30;8.20;;;1.60;;
76228;SDS011;65021;53.174;18.160;2024-01-25T02:52:57;13.00;;;1.50;;
76228;SDS011;65021;53.174;18.160;2024-01-25T02:55:24;10.80;;;1.50;;
76228;SDS011;65021;53.174;18.160;2024-01-25T02:57:50;12.70;;;1.30;;
76228;SDS011;65021;53.174;18.160;2024-01-25T03:00:17;13.20;;;2.20;;
76228;SDS011;65021;53.174;18.160;2024-01-25T03:02:43;10.20;;;1.40;;
76228;SDS011;65021;53.174;18.160;2024-01-25T03:05:10;4.30;;;0.80;;
76228;SDS011;65021;53.174;18.160;2024-01-25T03:07:37;11.00;;;1.90;;
76228;SDS011;65021;53.174;18.160;2024-01-25T03:10:03;8.70;;;1.90;;
76228;SDS011;65021;53.174;18.160;2024-01-25T03:12:30;9.60;;;1.60;;
76228;SDS011;65021;53.174;18.160;2024-01-25T03:14:57;6.50;;;1.10;;
76228;SDS011;65021;53.174;18.160;2024-01-25T03:17:23;12.60;;;1.90;;
76228;SDS011;65021;53.174;18.160;2024-01-25T03:19:50;8.90;;;1.90;;
76228;SDS011;65021;53.174;18.160;2024-01-25T03:22:16;10.90;;;1.50;;
76228;SDS011;65021;53.174;18.160;2024-01-25T03:24:43;11.50;;;2.10;;
76228;SDS011;65021;53.174;18.160;2024-01-25T03:27:09;10.90;;;2.60;;
76228;SDS011;65021;53.174;18.160;2024-01-25T03:29:42;7.60;;;1.40;;
76228;SDS011;65021;53.174;18.160;2024-01-25T03:32:09;10.80;;;1.80;;
76228;SDS011;65021;53.174;18.160;2024-01-25T03:34:36;6.90;;;1.30;;
76228;SDS011;65021;53.174;18.160;2024-01-25T03:37:03;6.80;;;2.00;;
76228;SDS011;65021;53.174;18.160;2024-01-25T03:39:30;9.10;;;2.00;;
76228;SDS011;65021;53.174;18.160;2024-01-25T03:41:56;10.40;;;2.00;;
76228;SDS011;65021;53.174;18.160;2024-01-25T03:44:23;9.40;;;1.80;;
76228;SDS011;65021;53.174;18.160;2024-01-25T03:46:50;13.10;;;2.30;;
76228;SDS011;65021;53.174;18.160;2024-01-25T03:49:16;8.80;;;1.70;;
76228;SDS011;65021;53.174;18.160;2024-01-25T03:51:43;9.70;;;1.60;;
76228;SDS011;65021;53.174;18.160;2024-01-25T03:54:10;12.50;;;2.00;;
76228;SDS011;65021;53.174;18.160;2024-01-25T03:56:36;7.90;;;1.60;;
76228;SDS011;65021;53.174;18.160;2024-01-25T03:59:03;7.70;;;1.90;;
76228;SDS011;65021;53.174;18.160;2024-01-25T04:01:29;8.00;;;1.60;;
76228;SDS011;65021;53.174;18.160;2024-01-25T04:03:56;8.30;;;1.50;;
76228;SDS011;65021;53.174;18.160;2024-01-25T04:06:22;7.70;;;1.40;;
76228;SDS011;65021;53.174;18.160;2024-01-25T04:08:49;11.50;;;1.40;;
76228;SDS011;65021;53.174;18.160;2024-01-25T04:11:15;9.20;;;1.60;;
76228;SDS011;65021;53.174;18.160;2024-01-25T04:13:42;11.80;;;1.70;;
76228;SDS011;65021;53.174;18.160;2024-01-25T04:16:10;7.50;;;1.60;;
76228;SDS011;65021;53.174;18.160;2024-01-25T04:18:40;10.70;;;1.60;;
76228;SDS011;65021;53.174;18.160;2024-01-25T04:21:07;10.40;;;1.70;;
76228;SDS011;65021;53.174;18.160;2024-01-25T04:23:35;7.60;;;1.90;;
76228;SDS011;65021;53.174;18.160;2024-01-25T04:26:02;8.30;;;1.50;;
76228;SDS011;65021;53.174;18.160;2024-01-25T04:28:28;7.40;;;1.30;;
76228;SDS011;65021;53.174;18.160;2024-01-25T04:30:55;6.00;;;1.50;;
76228;SDS011;65021;53.174;18.160;2024-01-25T04:33:21;6.80;;;0.90;;
76228;SDS011;65021;53.174;18.160;2024-01-25T04:35:48;7.20;;;1.10;;
76228;SDS011;65021;53.174;18.160;2024-01-25T04:38:14;4.80;;;0.90;;
76228;SDS011;65021;53.174;18.160;2024-01-25T04:40:41;8.00;;;1.40;;
76228;SDS011;65021;53.174;18.160;2024-01-25T04:43:08;7.60;;;1.70;;
76228;SDS011;65021;53.174;18.160;2024-01-25T04:45:35;5.90;;;1.60;;
76228;SDS011;65021;53.174;18.160;2024-01-25T04:48:01;6.70;;;1.40;;
76228;SDS011;65021;53.174;18.160;2024-01-25T04:50:28;8.00;;;1.90;;
76228;SDS011;65021;53.174;18.160;2024-01-25T04:52:54;5.10;;;1.30;;
76228;SDS011;65021;53.174;18.160;2024-01-25T04:55:21;7.90;;;1.20;;
76228;SDS011;65021;53.174;18.160;2024-01-25T04:57:47;3.80;;;0.60;;
76228;SDS011;65021;53.174;18.160;2024-01-25T05:00:16;5.80;;;1.10;;
76228;SDS011;65021;53.174;18.160;2024-01-25T05:02:43;4.20;;;1.10;;
76228;SDS011;65021;53.174;18.160;2024-01-25T05:05:09;3.70;;;0.90;;
76228;SDS011;65021;53.174;18.160;2024-01-25T05:07:36;6.80;;;1.00;;
76228;SDS011;65021;53.174;18.160;2024-01-25T05:10:03;4.30;;;0.90;;
76228;SDS011;65021;53.174;18.160;2024-01-25T05:12:30;5.60;;;1.00;;
76228;SDS011;65021;53.174;18.160;2024-01-25T05:14:57;5.70;;;0.90;;
76228;SDS011;65021;53.174;18.160;2024-01-25T05:17:24;4.40;;;1.00;;
76228;SDS011;65021;53.174;18.160;2024-01-25T05:19:51;7.10;;;1.10;;
76228;SDS011;65021;53.174;18.160;2024-01-25T05:22:17;4.00;;;0.90;;
76228;SDS011;65021;53.174;18.160;2024-01-25T05:24:44;8.90;;;1.20;;
76228;SDS011;65021;53.174;18.160;2024-01-25T05:27:12;7.30;;;1.10;;
76228;SDS011;65021;53.174;18.160;2024-01-25T05:29:39;5.30;;;1.10;;
76228;SDS011;65021;53.174;18.160;2024-01-25T05:32:05;3.00;;;1.00;;
76228;SDS011;65021;53.174;18.160;2024-01-25T05:34:32;3.20;;;0.80;;
76228;SDS011;65021;53.174;18.160;2024-01-25T05:36:58;3.20;;;0.80;;
76228;SDS011;65021;53.174;18.160;2024-01-25T05:39:25;4.80;;;1.20;;
76228;SDS011;65021;53.174;18.160;2024-01-25T05:41:51;5.70;;;1.00;;
76228;SDS011;65021;53.174;18.160;2024-01-25T05:44:18;4.10;;;0.90;;
76228;SDS011;65021;53.174;18.160;2024-01-25T05:46:45;5.90;;;0.90;;
76228;SDS011;65021;53.174;18.160;2024-01-25T05:49:11;3.50;;;0.70;;
76228;SDS011;65021;53.174;18.160;2024-01-25T05:51:38;5.30;;;0.90;;
76228;SDS011;65021;53.174;18.160;2024-01-25T05:54:04;2.80;;;0.60;;
76228;SDS011;65021;53.174;18.160;2024-01-25T05:56:31;3.10;;;0.90;;
76228;SDS011;65021;53.174;18.160;2024-01-25T05:58:58;3.10;;;0.70;;
76228;SDS011;65021;53.174;18.160;2024-01-25T06:01:24;2.00;;;0.80;;
76228;SDS011;65021;53.174;18.160;2024-01-25T06:03:51;2.00;;;0.50;;
76228;SDS011;65021;53.174;18.160;2024-01-25T06:06:18;2.40;;;0.80;;
76228;SDS011;65021;53.174;18.160;2024-01-25T06:08:44;2.10;;;0.70;;
76228;SDS011;65021;53.174;18.160;2024-01-25T06:11:11;2.40;;;0.70;;
76228;SDS011;65021;53.174;18.160;2024-01-25T06:13:37;3.70;;;1.50;;
76228;SDS011;65021;53.174;18.160;2024-01-25T06:16:04;2.90;;;0.70;;
76228;SDS011;65021;53.174;18.160;2024-01-25T06:18:31;1.40;;;0.60;;
76228;SDS011;65021;53.174;18.160;2024-01-25T06:20:58;1.70;;;0.30;;
76228;SDS011;65021;53.174;18.160;2024-01-25T06:23:24;1.30;;;0.40;;
76228;SDS011;65021;53.174;18.160;2024-01-25T06:25:51;1.60;;;0.40;;
76228;SDS011;65021;53.174;18.160;2024-01-25T06:28:18;1.70;;;0.40;;
76228;SDS011;65021;53.174;18.160;2024-01-25T06:30:45;4.20;;;0.50;;
76228;SDS011;65021;53.174;18.160;2024-01-25T06:33:12;3.00;;;0.70;;
76228;SDS011;65021;53.174;18.160;2024-01-25T06:35:39;1.10;;;0.40;;
76228;SDS011;65021;53.174;18.160;2024-01-25T06:38:05;2.00;;;0.40;;
76228;SDS011;65021;53.174;18.160;2024-01-25T06:40:32;3.50;;;0.60;;
76228;SDS011;65021;53.174;18.160;2024-01-25T06:42:58;2.30;;;0.50;;
76228;SDS011;65021;53.174;18.160;2024-01-25T06:45:25;2.20;;;0.60;;
76228;SDS011;65021;53.174;18.160;2024-01-25T06:47:51;1.00;;;0.30;;
76228;SDS011;65021;53.174;18.160;2024-01-25T06:50:18;1.20;;;0.30;;
76228;SDS011;65021;53.174;18.160;2024-01-25T06:52:44;1.40;;;0.30;;
76228;SDS011;65021;53.174;18.160;2024-01-25T06:55:11;1.40;;;0.50;;
76228;SDS011;65021;53.174;18.160;2024-01-25T06:57:38;1.30;;;0.40;;
76228;SDS011;65021;53.174;18.160;2024-01-25T07:00:05;1.20;;;0.50;;
76228;SDS011;65021;53.174;18.160;2024-01-25T07:02:32;1.50;;;0.40;;
76228;SDS011;65021;53.174;18.160;2024-01-25T07:04:59;1.60;;;0.40;;
76228;SDS011;65021;53.174;18.160;2024-01-25T07:07:27;0.80;;;0.40;;
76228;SDS011;65021;53.174;18.160;2024-01-25T07:09:54;2.30;;;0.40;;
76228;SDS011;65021;53.174;18.160;2024-01-25T07:12:20;3.30;;;0.70;;
76228;SDS011;65021;53.174;18.160;2024-01-25T07:14:47;3.20;;;0.50;;
76228;SDS011;65021;53.174;18.160;2024-01-25T07:17:13;2.00;;;0.50;;
76228;SDS011;65021;53.174;18.160;2024-01-25T07:19:40;1.00;;;0.30;;
76228;SDS011;65021;53.174;18.160;2024-01-25T07:22:06;2.70;;;0.90;;
76228;SDS011;65021;53.174;18.160;2024-01-25T07:24:34;2.50;;;0.80;;
76228;SDS011;65021;53.174;18.160;2024-01-25T07:27:00;1.50;;;0.40;;
76228;SDS011;65021;53.174;18.160;2024-01-25T07:31:56;1.60;;;0.40;;
76228;SDS011;65021;53.174;18.160;2024-01-25T07:34:23;4.20;;;0.80;;
76228;SDS011;65021;53.174;18.160;2024-01-25T07:36:49;3.10;;;0.40;;
76228;SDS011;65021;53.174;18.160;2024-01-25T07:39:16;2.50;;;0.70;;
76228;SDS011;65021;53.174;18.160;2024-01-25T07:41:42;2.40;;;0.60;;
76228;SDS011;65021;53.174;18.160;2024-01-25T07:44:09;0.90;;;0.20;;
76228;SDS011;65021;53.174;18.160;2024-01-25T07:46:35;1.60;;;0.50;;
76228;SDS011;65021;53.174;18.160;2024-01-25T07:49:02;1.80;;;0.40;;
76228;SDS011;65021;53.174;18.160;2024-01-25T07:51:28;2.90;;;0.60;;
76228;SDS011;65021;53.174;18.160;2024-01-25T07:53:55;3.10;;;0.60;;
76228;SDS011;65021;53.174;18.160;2024-01-25T07:56:21;2.10;;;0.70;;
76228;SDS011;65021;53.174;18.160;2024-01-25T07:58:48;1.40;;;0.50;;
76228;SDS011;65021;53.174;18.160;2024-01-25T08:01:18;2.20;;;0.50;;
76228;SDS011;65021;53.174;18.160;2024-01-25T08:03:45;5.00;;;0.80;;
76228;SDS011;65021;53.174;18.160;2024-01-25T08:06:12;1.90;;;0.80;;
76228;SDS011;65021;53.174;18.160;2024-01-25T08:08:39;1.30;;;0.60;;
76228;SDS011;65021;53.174;18.160;2024-01-25T08:11:06;2.90;;;0.80;;
76228;SDS011;65021;53.174;18.160;2024-01-25T08:13:32;3.00;;;0.80;;
76228;SDS011;65021;53.174;18.160;2024-01-25T08:15:59;3.70;;;1.10;;
76228;SDS011;65021;53.174;18.160;2024-01-25T08:18:26;5.50;;;0.80;;
76228;SDS011;65021;53.174;18.160;2024-01-25T08:20:56;2.90;;;0.80;;
76228;SDS011;65021;53.174;18.160;2024-01-25T08:23:22;1.90;;;0.30;;
76228;SDS011;65021;53.174;18.160;2024-01-25T08:25:49;2.50;;;0.70;;
76228;SDS011;65021;53.174;18.160;2024-01-25T08:28:15;4.10;;;0.70;;
76228;SDS011;65021;53.174;18.160;2024-01-25T08:30:42;4.10;;;1.00;;
76228;SDS011;65021;53.174;18.160;2024-01-25T08:33:09;5.10;;;1.00;;
76228;SDS011;65021;53.174;18.160;2024-01-25T08:35:35;4.00;;;1.20;;
76228;SDS011;65021;53.174;18.160;2024-01-25T08:38:02;4.10;;;0.90;;
76228;SDS011;65021;53.174;18.160;2024-01-25T08:40:29;4.90;;;1.60;;
76228;SDS011;65021;53.174;18.160;2024-01-25T08:42:55;5.60;;;1.40;;
76228;SDS011;65021;53.174;18.160;2024-01-25T08:45:22;5.90;;;1.10;;
76228;SDS011;65021;53.174;18.160;2024-01-25T08:47:49;5.00;;;1.00;;
76228;SDS011;65021;53.174;18.160;2024-01-25T08:50:17;3.60;;;1.20;;
76228;SDS011;65021;53.174;18.160;2024-01-25T08:52:44;4.40;;;1.00;;
76228;SDS011;65021;53.174;18.160;2024-01-25T08:55:10;10.00;;;1.50;;
76228;SDS011;65021;53.174;18.160;2024-01-25T08:57:37;7.80;;;1.10;;
76228;SDS011;65021;53.174;18.160;2024-01-25T09:00:06;3.60;;;0.80;;
76228;SDS011;65021;53.174;18.160;2024-01-25T09:02:38;6.00;;;1.30;;
76228;SDS011;65021;53.174;18.160;2024-01-25T09:05:05;6.80;;;1.20;;
76228;SDS011;65021;53.174;18.160;2024-01-25T09:07:32;5.70;;;1.40;;
76228;SDS011;65021;53.174;18.160;2024-01-25T09:09:59;3.20;;;0.50;;
76228;SDS011;65021;53.174;18.160;2024-01-25T09:12:26;6.90;;;0.90;;
76228;SDS011;65021;53.174;18.160;2024-01-25T09:14:52;3.70;;;1.10;;
76228;SDS011;65021;53.174;18.160;2024-01-25T09:17:21;5.60;;;1.50;;
76228;SDS011;65021;53.174;18.160;2024-01-25T09:19:49;6.60;;;1.50;;
76228;SDS011;65021;53.174;18.160;2024-01-25T09:22:19;5.70;;;1.10;;
76228;SDS011;65021;53.174;18.160;2024-01-25T09:24:46;6.40;;;1.40;;
76228;SDS011;65021;53.174;18.160;2024-01-25T09:27:13;5.00;;;0.90;;
76228;SDS011;65021;53.174;18.160;2024-01-25T09:29:41;5.80;;;1.60;;
76228;SDS011;65021;53.174;18.160;2024-01-25T09:32:08;5.10;;;1.40;;
76228;SDS011;65021;53.174;18.160;2024-01-25T09:34:38;4.70;;;1.60;;
76228;SDS011;65021;53.174;18.160;2024-01-25T09:37:05;7.60;;;1.40;;
76228;SDS011;65021;53.174;18.160;2024-01-25T09:39:31;31.30;;;14.00;;
76228;SDS011;65021;53.174;18.160;2024-01-25T09:41:58;7.20;;;2.90;;
76228;SDS011;65021;53.174;18.160;2024-01-25T09:44:25;5.70;;;1.00;;
76228;SDS011;65021;53.174;18.160;2024-01-25T09:46:52;5.80;;;1.90;;
76228;SDS011;65021;53.174;18.160;2024-01-25T09:49:19;6.10;;;1.40;;
76228;SDS011;65021;53.174;18.160;2024-01-25T09:51:46;5.60;;;1.40;;
76228;SDS011;65021;53.174;18.160;2024-01-25T09:54:16;5.30;;;2.10;;
76228;SDS011;65021;53.174;18.160;2024-01-25T09:56:42;4.70;;;2.40;;
76228;SDS011;65021;53.174;18.160;2024-01-25T09:59:09;8.10;;;1.90;;
76228;SDS011;65021;53.174;18.160;2024-01-25T10:01:36;5.60;;;1.40;;
76228;SDS011;65021;53.174;18.160;2024-01-25T10:04:05;5.30;;;0.50;;
76228;SDS011;65021;53.174;18.160;2024-01-25T10:06:32;21.00;;;9.80;;
76228;SDS011;65021;53.174;18.160;2024-01-25T10:09:00;11.70;;;5.30;;
76228;SDS011;65021;53.174;18.160;2024-01-25T10:11:26;6.50;;;1.80;;
76228;SDS011;65021;53.174;18.160;2024-01-25T10:13:54;5.70;;;0.90;;
76228;SDS011;65021;53.174;18.160;2024-01-25T10:16:23;5.30;;;1.10;;
76228;SDS011;65021;53.174;18.160;2024-01-25T10:18:50;4.10;;;1.50;;
76228;SDS011;65021;53.174;18.160;2024-01-25T10:21:19;5.60;;;1.20;;
76228;SDS011;65021;53.174;18.160;2024-01-25T10:23:46;4.30;;;2.00;;
76228;SDS011;65021;53.174;18.160;2024-01-25T10:26:17;9.00;;;2.90;;
76228;SDS011;65021;53.174;18.160;2024-01-25T10:28:50;5.10;;;1.60;;
76228;SDS011;65021;53.174;18.160;2024-01-25T10:31:18;4.60;;;1.10;;
76228;SDS011;65021;53.174;18.160;2024-01-25T10:33:45;7.60;;;0.90;;
76228;SDS011;65021;53.174;18.160;2024-01-25T10:36:13;8.50;;;1.80;;
76228;SDS011;65021;53.174;18.160;2024-01-25T10:38:40;6.60;;;1.90;;
76228;SDS011;65021;53.174;18.160;2024-01-25T10:41:09;7.30;;;1.30;;
76228;SDS011;65021;53.174;18.160;2024-01-25T10:43:37;6.70;;;1.80;;
76228;SDS011;65021;53.174;18.160;2024-01-25T10:46:03;6.40;;;1.70;;
76228;SDS011;65021;53.174;18.160;2024-01-25T10:48:32;6.80;;;1.30;;
76228;SDS011;65021;53.174;18.160;2024-01-25T10:50:58;4.80;;;1.40;;
76228;SDS011;65021;53.174;18.160;2024-01-25T10:53:29;4.80;;;1.00;;
76228;SDS011;65021;53.174;18.160;2024-01-25T10:55:58;9.60;;;1.40;;
76228;SDS011;65021;53.174;18.160;2024-01-25T10:58:29;2.70;;;0.80;;
76228;SDS011;65021;53.174;18.160;2024-01-25T11:01:01;5.10;;;1.90;;
76228;SDS011;65021;53.174;18.160;2024-01-25T11:03:29;4.00;;;1.00;;
76228;SDS011;65021;53.174;18.160;2024-01-25T11:06:33;5.90;;;1.20;;
76228;SDS011;65021;53.174;18.160;2024-01-25T11:09:05;5.50;;;1.10;;
76228;SDS011;65021;53.174;18.160;2024-01-25T11:11:32;3.50;;;0.90;;
76228;SDS011;65021;53.174;18.160;2024-01-25T11:14:02;5.60;;;1.30;;
76228;SDS011;65021;53.174;18.160;2024-01-25T11:16:30;3.30;;;1.00;;
76228;SDS011;65021;53.174;18.160;2024-01-25T11:18:58;6.70;;;1.40;;
76228;SDS011;65021;53.174;18.160;2024-01-25T11:21:43;5.70;;;1.60;;
76228;SDS011;65021;53.174;18.160;2024-01-25T11:24:21;6.20;;;3.40;;
76228;SDS011;65021;53.174;18.160;2024-01-25T11:26:49;5.20;;;2.60;;
76228;SDS011;65021;53.174;18.160;2024-01-25T11:29:17;7.50;;;1.60;;
76228;SDS011;65021;53.174;18.160;2024-01-25T11:31:46;7.00;;;3.80;;
76228;SDS011;65021;53.174;18.160;2024-01-25T11:34:15;6.00;;;1.20;;
76228;SDS011;65021;53.174;18.160;2024-01-25T11:36:44;1.50;;;0.60;;
76228;SDS011;65021;53.174;18.160;2024-01-25T11:39:14;8.70;;;1.90;;
76228;SDS011;65021;53.174;18.160;2024-01-25T11:41:42;4.40;;;1.30;;
76228;SDS011;65021;53.174;18.160;2024-01-25T11:44:10;4.30;;;1.30;;
76228;SDS011;65021;53.174;18.160;2024-01-25T11:46:38;5.50;;;1.20;;
76228;SDS011;65021;53.174;18.160;2024-01-25T11:49:04;5.20;;;1.20;;
76228;SDS011;65021;53.174;18.160;2024-01-25T11:51:33;3.90;;;1.00;;
76228;SDS011;65021;53.174;18.160;2024-01-25T11:53:59;6.60;;;1.30;;
76228;SDS011;65021;53.174;18.160;2024-01-25T11:56:27;2.10;;;0.70;;
76228;SDS011;65021;53.174;18.160;2024-01-25T11:58:56;4.30;;;1.20;;
76228;SDS011;65021;53.174;18.160;2024-01-25T12:01:24;5.40;;;1.20;;
76228;SDS011;65021;53.174;18.160;2024-01-25T12:03:51;4.20;;;1.20;;
76228;SDS011;65021;53.174;18.160;2024-01-25T12:06:18;7.50;;;1.40;;
76228;SDS011;65021;53.174;18.160;2024-01-25T12:08:45;5.40;;;1.20;;
76228;SDS011;65021;53.174;18.160;2024-01-25T12:11:14;7.10;;;1.50;;
76228;SDS011;65021;53.174;18.160;2024-01-25T12:13:42;5.20;;;1.10;;
76228;SDS011;65021;53.174;18.160;2024-01-25T12:16:09;6.70;;;1.50;;
76228;SDS011;65021;53.174;18.160;2024-01-25T12:18:37;4.30;;;0.80;;
76228;SDS011;65021;53.174;18.160;2024-01-25T12:21:05;5.40;;;0.90;;
76228;SDS011;65021;53.174;18.160;2024-01-25T12:23:33;3.60;;;1.20;;
76228;SDS011;65021;53.174;18.160;2024-01-25T12:26:04;8.70;;;1.50;;
76228;SDS011;65021;53.174;18.160;2024-01-25T12:28:32;8.50;;;1.60;;
76228;SDS011;65021;53.174;18.160;2024-01-25T12:30:59;4.90;;;1.80;;
76228;SDS011;65021;53.174;18.160;2024-01-25T12:33:27;3.80;;;1.00;;
76228;SDS011;65021;53.174;18.160;2024-01-25T12:35:53;4.60;;;1.40;;
76228;SDS011;65021;53.174;18.160;2024-01-25T12:38:21;5.00;;;1.10;;
76228;SDS011;65021;53.174;18.160;2024-01-25T12:40:48;7.40;;;2.00;;
76228;SDS011;65021;53.174;18.160;2024-01-25T12:43:16;4.30;;;1.40;;
76228;SDS011;65021;53.174;18.160;2024-01-25T12:45:43;4.50;;;1.60;;
76228;SDS011;65021;53.174;18.160;2024-01-25T12:48:11;5.00;;;1.20;;
76228;SDS011;65021;53.174;18.160;2024-01-25T12:50:37;7.20;;;1.30;;
76228;SDS011;65021;53.174;18.160;2024-01-25T12:53:04;7.40;;;1.80;;
76228;SDS011;65021;53.174;18.160;2024-01-25T12:55:32;5.90;;;1.60;;
76228;SDS011;65021;53.174;18.160;2024-01-25T12:58:00;4.50;;;1.40;;
76228;SDS011;65021;53.174;18.160;2024-01-25T13:00:27;4.80;;;1.20;;
76228;SDS011;65021;53.174;18.160;2024-01-25T13:02:53;7.10;;;1.80;;
76228;SDS011;65021;53.174;18.160;2024-01-25T13:05:20;5.60;;;1.60;;
76228;SDS011;65021;53.174;18.160;2024-01-25T13:07:47;4.30;;;1.20;;
76228;SDS011;65021;53.174;18.160;2024-01-25T13:10:13;3.80;;;0.90;;
76228;SDS011;65021;53.174;18.160;2024-01-25T13:12:40;2.40;;;0.60;;
76228;SDS011;65021;53.174;18.160;2024-01-25T13:15:07;6.30;;;1.70;;
76228;SDS011;65021;53.174;18.160;2024-01-25T13:17:35;4.90;;;1.20;;
76228;SDS011;65021;53.174;18.160;2024-01-25T13:20:04;4.40;;;1.40;;
76228;SDS011;65021;53.174;18.160;2024-01-25T13:22:33;6.40;;;1.10;;
76228;SDS011;65021;53.174;18.160;2024-01-25T13:25:00;4.40;;;1.10;;
76228;SDS011;65021;53.174;18.160;2024-01-25T13:27:28;2.70;;;0.80;;
76228;SDS011;65021;53.174;18.160;2024-01-25T13:29:54;1.50;;;0.50;;
76228;SDS011;65021;53.174;18.160;2024-01-25T13:32:22;2.30;;;0.90;;
76228;SDS011;65021;53.174;18.160;2024-01-25T13:34:49;2.80;;;1.00;;
76228;SDS011;65021;53.174;18.160;2024-01-25T13:37:15;4.20;;;1.10;;
76228;SDS011;65021;53.174;18.160;2024-01-25T13:39:42;2.40;;;0.90;;
76228;SDS011;65021;53.174;18.160;2024-01-25T13:42:08;3.50;;;1.10;;
76228;SDS011;65021;53.174;18.160;2024-01-25T13:44:35;3.50;;;1.00;;
76228;SDS011;65021;53.174;18.160;2024-01-25T13:47:01;1.80;;;0.80;;
76228;SDS011;65021;53.174;18.160;2024-01-25T13:49:28;7.00;;;0.90;;
76228;SDS011;65021;53.174;18.160;2024-01-25T13:51:55;2.30;;;1.00;;
76228;SDS011;65021;53.174;18.160;2024-01-25T13:54:21;3.40;;;1.20;;
76228;SDS011;65021;53.174;18.160;2024-01-25T13:56:48;3.50;;;1.00;;
76228;SDS011;65021;53.174;18.160;2024-01-25T13:59:14;3.60;;;0.80;;
76228;SDS011;65021;53.174;18.160;2024-01-25T14:01:41;2.80;;;0.90;;
76228;SDS011;65021;53.174;18.160;2024-01-25T14:04:07;3.70;;;0.90;;
76228;SDS011;65021;53.174;18.160;2024-01-25T14:06:34;2.90;;;1.00;;
76228;SDS011;65021;53.174;18.160;2024-01-25T14:09:00;2.50;;;0.70;;
76228;SDS011;65021;53.174;18.160;2024-01-25T14:11:27;3.50;;;1.20;;
76228;SDS011;65021;53.174;18.160;2024-01-25T14:13:54;3.30;;;0.90;;
76228;SDS011;65021;53.174;18.160;2024-01-25T14:16:21;4.00;;;1.00;;
76228;SDS011;65021;53.174;18.160;2024-01-25T14:18:48;4.10;;;0.90;;
76228;SDS011;65021;53.174;18.160;2024-01-25T14:21:14;3.30;;;1.10;;
76228;SDS011;65021;53.174;18.160;2024-01-25T14:23:44;3.80;;;1.40;;
76228;SDS011;65021;53.174;18.160;2024-01-25T14:26:10;3.40;;;0.90;;
76228;SDS011;65021;53.174;18.160;2024-01-25T14:28:37;3.20;;;0.90;;
76228;SDS011;65021;53.174;18.160;2024-01-25T14:31:03;3.30;;;1.20;;
76228;SDS011;65021;53.174;18.160;2024-01-25T14:33:30;3.00;;;1.20;;
76228;SDS011;65021;53.174;18.160;2024-01-25T14:35:57;3.40;;;0.90;;